createdAt,value
2017-05-29T00:01:51.975Z,18.90
2017-05-29T00:04:23.261Z,18.80
2017-05-29T00:06:54.258Z,18.80
2017-05-29T00:09:25.452Z,18.80
2017-05-29T00:11:57.147Z,18.70
2017-05-29T00:14:28.132Z,18.70
2017-05-29T00:16:59.014Z,18.70
2017-05-29T00:19:30.524Z,18.60
2017-05-29T00:22:01.455Z,18.60
2017-05-29T00:24:32.478Z,18.50
2017-05-29T00:27:03.255Z,18.50
2017-05-29T00:29:34.121Z,18.40
2017-05-29T00:32:04.971Z,18.40
2017-05-29T00:34:35.904Z,18.40
2017-05-29T00:37:06.689Z,18.30
2017-05-29T00:39:37.596Z,18.30
2017-05-29T00:42:08.425Z,18.30
2017-05-29T00:44:39.326Z,18.30
2017-05-29T00:47:10.212Z,18.30
2017-05-29T00:49:43.022Z,18.30
2017-05-29T00:52:14.591Z,18.20
2017-05-29T00:54:45.512Z,18.20
2017-05-29T00:57:16.307Z,18.20
2017-05-29T00:59:48.025Z,18.10
2017-05-29T01:02:18.830Z,18.10
2017-05-29T01:04:50.724Z,18.10
2017-05-29T01:07:21.521Z,18.10
2017-05-29T01:09:53.474Z,18.10
2017-05-29T01:12:24.362Z,18.00
2017-05-29T01:14:55.342Z,18.10
2017-05-29T01:17:26.263Z,18.10
2017-05-29T01:19:59.023Z,18.10
2017-05-29T01:22:31.086Z,18.10
2017-05-29T01:25:04.125Z,18.20
2017-05-29T01:27:38.019Z,18.20
2017-05-29T01:30:09.081Z,18.30
2017-05-29T01:32:40.034Z,18.30
2017-05-29T01:35:11.829Z,18.40
2017-05-29T01:37:42.701Z,18.50
2017-05-29T01:40:16.684Z,18.50
2017-05-29T01:42:47.621Z,18.60
2017-05-29T01:45:18.697Z,18.60
2017-05-29T01:47:49.522Z,18.60
2017-05-29T01:50:21.999Z,18.70
2017-05-29T01:52:52.505Z,18.70
2017-05-29T01:55:22.875Z,18.70
2017-05-29T01:57:53.760Z,18.60
2017-05-29T02:00:24.738Z,18.60
2017-05-29T02:02:55.906Z,18.50
2017-05-29T02:05:26.949Z,18.60
2017-05-29T02:07:57.767Z,18.50
2017-05-29T02:10:28.704Z,18.50
2017-05-29T02:13:00.544Z,18.60
2017-05-29T02:15:31.453Z,18.60
2017-05-29T02:18:02.677Z,18.50
2017-05-29T02:20:35.155Z,18.80
2017-05-29T02:23:06.834Z,18.80
2017-05-29T02:25:39.039Z,18.90
2017-05-29T02:28:09.919Z,18.80
2017-05-29T02:30:40.821Z,18.90
2017-05-29T02:33:12.451Z,18.90
2017-05-29T02:35:44.569Z,18.90
2017-05-29T02:38:15.472Z,18.90
2017-05-29T02:40:49.254Z,18.90
2017-05-29T02:43:20.128Z,19.00
2017-05-29T02:45:51.021Z,19.00
2017-05-29T02:48:21.966Z,19.10
2017-05-29T02:50:53.902Z,19.10
2017-05-29T02:53:24.829Z,19.10
2017-05-29T02:55:56.072Z,19.10
2017-05-29T02:58:27.194Z,19.10
2017-05-29T03:00:58.279Z,19.10
2017-05-29T03:03:29.838Z,19.10
2017-05-29T03:06:01.177Z,19.10
2017-05-29T03:08:32.098Z,19.00
2017-05-29T03:11:03.138Z,19.10
2017-05-29T03:13:34.131Z,19.00
2017-05-29T03:16:05.054Z,19.00
2017-05-29T03:18:36.709Z,19.00
2017-05-29T03:21:08.686Z,19.00
2017-05-29T03:23:41.062Z,19.00
2017-05-29T03:26:12.201Z,19.00
2017-05-29T03:28:43.436Z,18.90
2017-05-29T03:31:15.872Z,18.90
2017-05-29T03:33:46.865Z,19.00
2017-05-29T03:36:18.285Z,19.00
2017-05-29T03:38:49.224Z,18.70
2017-05-29T03:41:20.182Z,19.00
2017-05-29T03:43:51.041Z,19.00
2017-05-29T03:46:21.955Z,19.10
2017-05-29T03:48:53.191Z,19.00
2017-05-29T03:51:25.265Z,19.00
2017-05-29T03:53:58.335Z,19.00
2017-05-29T03:56:29.830Z,19.00
2017-05-29T03:59:00.913Z,18.90
2017-05-29T04:01:31.860Z,19.00
2017-05-29T04:04:03.110Z,18.90
2017-05-29T04:06:34.090Z,19.00
2017-05-29T04:09:06.834Z,19.00
2017-05-29T04:11:37.912Z,19.00
2017-05-29T04:14:09.688Z,19.00
2017-05-29T04:16:40.704Z,19.10
2017-05-29T04:19:11.684Z,19.20
2017-05-29T04:21:43.960Z,19.30
2017-05-29T04:24:15.896Z,19.30
2017-05-29T04:26:47.244Z,19.30
2017-05-29T04:29:18.270Z,19.30
2017-05-29T04:31:49.431Z,19.00
2017-05-29T04:34:19.571Z,19.40
2017-05-29T04:36:50.418Z,19.40
2017-05-29T04:39:22.884Z,19.60
2017-05-29T04:41:53.941Z,19.90
2017-05-29T04:44:25.077Z,20.20
2017-05-29T04:46:57.215Z,20.50
2017-05-29T04:49:28.281Z,20.50
2017-05-29T04:52:00.463Z,20.60
2017-05-29T04:54:31.471Z,20.70
2017-05-29T04:57:04.204Z,20.80
2017-05-29T04:59:35.395Z,21.00
2017-05-29T05:02:06.565Z,21.20
2017-05-29T05:04:38.389Z,21.50
2017-05-29T05:07:09.414Z,21.70
2017-05-29T05:09:40.472Z,21.90
2017-05-29T05:12:13.305Z,22.10
2017-05-29T05:14:44.344Z,22.30
2017-05-29T05:17:15.712Z,22.50
2017-05-29T05:19:46.735Z,22.70
2017-05-29T05:22:18.495Z,22.80
2017-05-29T05:24:49.545Z,22.70
2017-05-29T05:27:20.826Z,22.80
2017-05-29T05:29:52.023Z,22.90
2017-05-29T05:32:24.105Z,23.00
2017-05-29T05:34:55.117Z,23.20
2017-05-29T05:37:26.426Z,23.20
2017-05-29T05:39:57.552Z,23.40
2017-05-29T05:42:28.510Z,23.60
2017-05-29T05:44:59.534Z,23.60
2017-05-29T05:47:30.666Z,23.60
2017-05-29T05:50:02.543Z,23.70
2017-05-29T05:52:34.401Z,23.70
2017-05-29T05:55:05.458Z,23.70
2017-05-29T05:57:36.872Z,23.60
2017-05-29T06:00:08.123Z,23.60
2017-05-29T06:02:38.725Z,23.60
2017-05-29T06:05:13.701Z,23.70
2017-05-29T06:07:44.842Z,23.70
2017-05-29T06:10:15.955Z,23.80
2017-05-29T06:12:47.815Z,23.50
2017-05-29T06:15:18.837Z,23.50
2017-05-29T06:17:49.936Z,23.50
2017-05-29T06:20:21.053Z,23.60
2017-05-29T06:22:54.227Z,23.70
2017-05-29T06:25:27.520Z,23.90
2017-05-29T06:27:58.998Z,24.10
2017-05-29T06:30:30.546Z,24.30
2017-05-29T06:33:01.682Z,24.60
2017-05-29T06:35:32.713Z,24.80
2017-05-29T06:38:04.858Z,25.00
2017-05-29T06:40:35.933Z,25.10
2017-05-29T06:43:06.936Z,25.20
2017-05-29T06:45:38.394Z,25.40
2017-05-29T06:48:09.465Z,25.50
2017-05-29T06:50:41.642Z,25.60
2017-05-29T06:53:13.718Z,25.60
2017-05-29T06:55:44.798Z,25.70
2017-05-29T06:58:16.101Z,25.80
2017-05-29T07:00:47.614Z,25.70
2017-05-29T07:03:18.708Z,25.80
2017-05-29T07:05:49.698Z,26.00
2017-05-29T07:08:21.041Z,26.30
2017-05-29T07:10:52.566Z,26.50
2017-05-29T07:13:23.557Z,26.60
2017-05-29T07:15:55.454Z,26.60
2017-05-29T07:18:26.346Z,26.60
2017-05-29T07:20:57.386Z,26.80
2017-05-29T07:23:29.779Z,26.90
2017-05-29T07:26:00.915Z,26.90
2017-05-29T07:28:32.271Z,27.00
2017-05-29T07:31:03.331Z,27.10
2017-05-29T07:33:34.400Z,27.20
2017-05-29T07:36:05.319Z,27.50
2017-05-29T07:38:36.719Z,27.60
2017-05-29T07:41:12.503Z,27.80
2017-05-29T07:43:43.657Z,27.80
2017-05-29T07:46:15.873Z,27.90
2017-05-29T07:48:47.738Z,28.00
2017-05-29T07:51:23.870Z,28.00
2017-05-29T07:54:05.332Z,28.20
2017-05-29T07:56:36.395Z,28.30
2017-05-29T07:59:10.936Z,28.50
2017-05-29T08:01:48.400Z,28.70
2017-05-29T08:04:19.773Z,28.80
2017-05-29T08:06:52.083Z,29.00
2017-05-29T08:09:23.089Z,28.90
2017-05-29T08:11:54.128Z,29.00
2017-05-29T08:14:25.657Z,29.10
2017-05-29T08:16:57.270Z,29.10
2017-05-29T08:19:29.998Z,29.40
2017-05-29T08:22:02.281Z,29.40
2017-05-29T08:24:34.807Z,29.60
2017-05-29T08:27:07.989Z,29.50
2017-05-29T08:29:39.669Z,29.10
2017-05-29T08:32:11.231Z,28.70
2017-05-29T08:34:42.173Z,28.60
2017-05-29T08:37:13.620Z,29.00
2017-05-29T08:39:44.698Z,29.60
2017-05-29T08:42:17.745Z,30.00
2017-05-29T08:44:49.014Z,30.10
2017-05-29T08:47:19.959Z,30.20
2017-05-29T08:49:50.934Z,30.60
2017-05-29T08:53:43.972Z,30.70
2017-05-29T08:56:16.020Z,30.90
2017-05-29T08:58:48.635Z,31.00
2017-05-29T09:01:19.509Z,31.00
2017-05-29T09:03:50.700Z,31.20
2017-05-29T09:06:24.042Z,31.40
2017-05-29T09:08:57.171Z,31.30
2017-05-29T09:11:29.284Z,31.10
2017-05-29T09:14:00.366Z,30.90
2017-05-29T09:16:31.963Z,31.10
2017-05-29T09:19:04.483Z,30.50
2017-05-29T09:21:43.800Z,30.50
2017-05-29T09:24:15.002Z,30.90
2017-05-29T09:26:46.731Z,31.30
2017-05-29T09:29:18.842Z,31.80
2017-05-29T09:31:49.201Z,31.90
2017-05-29T09:34:20.257Z,32.20
2017-05-29T09:36:51.533Z,32.70
2017-05-29T09:39:23.156Z,33.20
2017-05-29T09:41:54.095Z,33.60
2017-05-29T09:44:25.095Z,33.90
2017-05-29T09:46:57.301Z,34.30
2017-05-29T09:49:28.360Z,34.90
2017-05-29T09:51:58.690Z,34.70
2017-05-29T09:54:30.373Z,33.80
2017-05-29T09:57:03.574Z,33.70
2017-05-29T09:59:34.816Z,32.90
2017-05-29T10:02:06.370Z,32.90
2017-05-29T10:04:38.950Z,32.90
2017-05-29T10:07:09.942Z,34.80
2017-05-29T10:09:41.041Z,34.60
2017-05-29T10:12:12.650Z,34.70
2017-05-29T10:14:43.754Z,35.20
2017-05-29T10:17:15.296Z,35.30
2017-05-29T10:19:46.481Z,34.80
2017-05-29T10:22:17.550Z,35.00
2017-05-29T10:24:49.106Z,35.00
2017-05-29T10:27:20.779Z,35.10
2017-05-29T10:29:52.529Z,34.60
2017-05-29T10:32:24.031Z,34.10
2017-05-29T10:34:55.006Z,34.50
2017-05-29T10:37:25.985Z,35.30
2017-05-29T10:39:57.196Z,36.20
2017-05-29T10:42:32.741Z,36.00
2017-05-29T10:45:03.901Z,35.60
2017-05-29T10:47:34.901Z,35.70
2017-05-29T10:50:06.003Z,35.90
2017-05-29T10:52:37.734Z,34.90
2017-05-29T10:55:09.269Z,34.50
2017-05-29T10:57:41.473Z,34.40
2017-05-29T11:00:19.096Z,34.50
2017-05-29T11:02:50.477Z,34.70
2017-05-29T11:05:21.497Z,35.20
2017-05-29T11:07:53.149Z,35.70
2017-05-29T11:10:24.909Z,35.90
2017-05-29T11:12:56.207Z,35.20
2017-05-29T11:15:27.560Z,35.10
2017-05-29T11:17:59.857Z,35.50
2017-05-29T11:20:30.985Z,36.10
2017-05-29T11:23:02.215Z,35.90
2017-05-29T11:25:34.153Z,36.20
2017-05-29T11:28:07.478Z,35.40
2017-05-29T11:30:44.436Z,35.10
2017-05-29T11:33:20.358Z,34.90
2017-05-29T11:35:51.495Z,34.90
2017-05-29T11:38:22.633Z,35.80
2017-05-29T11:40:55.467Z,35.20
2017-05-29T11:43:26.505Z,35.70
2017-05-29T11:45:58.215Z,35.90
2017-05-29T11:48:29.318Z,36.10
2017-05-29T11:51:00.254Z,36.50
2017-05-29T11:53:31.584Z,36.80
2017-05-29T11:56:02.613Z,36.80
2017-05-29T11:58:35.095Z,36.30
2017-05-29T12:01:06.048Z,36.10
2017-05-29T12:03:37.793Z,35.70
2017-05-29T12:06:08.805Z,36.00
2017-05-29T12:08:39.728Z,35.80
2017-05-29T12:11:12.824Z,35.70
2017-05-29T12:13:43.860Z,36.10
2017-05-29T12:16:14.791Z,36.10
2017-05-29T12:18:45.745Z,36.70
2017-05-29T12:21:16.686Z,37.70
2017-05-29T12:23:47.670Z,37.70
2017-05-29T12:26:18.680Z,37.40
2017-05-29T12:28:50.378Z,37.40
2017-05-29T12:31:21.445Z,38.10
2017-05-29T12:33:52.813Z,38.80
2017-05-29T12:36:23.875Z,38.80
2017-05-29T12:38:59.138Z,37.40
2017-05-29T12:41:30.186Z,37.20
2017-05-29T12:44:01.743Z,38.00
2017-05-29T12:46:32.825Z,38.10
2017-05-29T12:49:07.562Z,38.20
2017-05-29T12:51:38.615Z,38.00
2017-05-29T12:54:08.774Z,38.00
2017-05-29T12:56:41.281Z,37.80
2017-05-29T12:59:12.609Z,38.10
2017-05-29T13:01:43.793Z,38.30
2017-05-29T13:06:54.954Z,37.10
2017-05-29T13:09:26.061Z,37.90
2017-05-29T13:11:57.391Z,38.30
2017-05-29T13:14:28.715Z,38.30
2017-05-29T13:17:00.361Z,37.90
2017-05-29T13:19:31.447Z,37.70
2017-05-29T13:22:06.695Z,38.20
2017-05-29T13:24:38.314Z,37.90
2017-05-29T13:27:09.456Z,38.00
2017-05-29T13:29:40.572Z,37.90
2017-05-29T13:32:12.182Z,37.70
2017-05-29T13:34:43.286Z,37.60
2017-05-29T13:37:14.338Z,37.40
2017-05-29T13:39:45.409Z,37.40
2017-05-29T13:42:16.439Z,37.70
2017-05-29T13:44:47.394Z,37.70
2017-05-29T13:47:18.415Z,38.00
2017-05-29T13:49:49.553Z,38.50
2017-05-29T13:52:20.849Z,38.30
2017-05-29T13:54:52.754Z,38.00
2017-05-29T13:57:24.444Z,38.00
2017-05-29T13:59:56.898Z,37.30
2017-05-29T14:02:29.384Z,37.50
2017-05-29T14:05:00.713Z,37.00
2017-05-29T14:07:31.896Z,37.50
2017-05-29T14:10:03.523Z,38.30
2017-05-29T14:12:34.361Z,38.20
2017-05-29T14:15:05.433Z,37.30
2017-05-29T14:17:36.935Z,37.10
2017-05-29T14:20:07.856Z,37.40
2017-05-29T14:22:38.815Z,37.90
2017-05-29T14:25:09.888Z,37.20
2017-05-29T14:29:00.259Z,37.00
2017-05-29T14:31:33.459Z,37.40
2017-05-29T14:34:06.945Z,37.40
2017-05-29T14:36:38.046Z,37.80
2017-05-29T14:39:09.972Z,37.70
2017-05-29T14:41:41.459Z,37.80
2017-05-29T14:44:12.576Z,37.80
2017-05-29T14:46:43.541Z,37.80
2017-05-29T14:49:14.769Z,37.40
2017-05-29T14:51:46.530Z,37.80
2017-05-29T14:54:17.682Z,38.00
2017-05-29T14:56:48.806Z,37.70
2017-05-29T14:59:19.762Z,37.90
2017-05-29T15:01:50.852Z,38.10
2017-05-29T15:04:21.894Z,37.50
2017-05-29T15:06:52.847Z,38.10
2017-05-29T15:09:23.833Z,38.00
2017-05-29T15:11:54.880Z,38.10
2017-05-29T15:14:25.846Z,37.90
2017-05-29T15:16:57.067Z,37.90
2017-05-29T15:19:28.853Z,37.80
2017-05-29T15:21:59.964Z,37.60
2017-05-29T15:24:31.105Z,37.70
2017-05-29T15:27:04.924Z,37.60
2017-05-29T15:29:37.024Z,37.20
2017-05-29T15:35:02.885Z,36.90
2017-05-29T15:37:34.700Z,37.10
2017-05-29T15:40:06.805Z,37.40
2017-05-29T15:42:38.446Z,37.50
2017-05-29T15:45:10.515Z,37.30
2017-05-29T15:47:41.606Z,37.60
2017-05-29T15:50:12.672Z,37.10
2017-05-29T15:52:43.617Z,36.80
2017-05-29T15:55:16.021Z,37.10
2017-05-29T15:57:47.224Z,37.10
2017-05-29T16:00:18.451Z,36.90
2017-05-29T16:02:49.526Z,36.60
2017-05-29T16:05:20.723Z,37.60
2017-05-29T16:07:52.091Z,37.60
2017-05-29T16:10:23.364Z,37.90
2017-05-29T16:12:55.531Z,38.10
2017-05-29T16:15:26.670Z,38.20
2017-05-29T16:17:57.697Z,38.10
2017-05-29T16:20:28.968Z,37.40
2017-05-29T16:23:00.962Z,37.20
2017-05-29T16:25:32.017Z,36.90
2017-05-29T16:28:03.223Z,37.20
2017-05-29T16:30:35.262Z,37.00
2017-05-29T16:33:07.141Z,37.00
2017-05-29T16:35:39.319Z,36.80
2017-05-29T16:38:10.768Z,36.80
2017-05-29T16:40:41.841Z,37.00
2017-05-29T16:43:14.084Z,36.50
2017-05-29T16:45:45.194Z,35.20
2017-05-29T16:48:16.302Z,34.60
2017-05-29T16:50:47.538Z,34.50
2017-05-29T16:53:18.658Z,34.30
2017-05-29T16:55:49.236Z,34.20
2017-05-29T16:58:21.146Z,33.80
2017-05-29T17:00:52.626Z,34.00
2017-05-29T17:03:23.101Z,34.00
2017-05-29T17:05:55.175Z,35.30
2017-05-29T17:08:26.099Z,35.70
2017-05-29T17:10:57.221Z,35.80
2017-05-29T17:13:28.573Z,36.30
2017-05-29T17:15:59.715Z,36.30
2017-05-29T17:18:33.711Z,36.60
2017-05-29T17:21:04.815Z,36.70
2017-05-29T17:23:37.333Z,36.40
2017-05-29T17:26:08.498Z,35.20
2017-05-29T17:28:39.884Z,34.50
2017-05-29T17:31:12.037Z,34.00
2017-05-29T17:33:44.080Z,33.50
2017-05-29T17:36:15.669Z,32.90
2017-05-29T17:38:47.981Z,32.40
2017-05-29T17:41:19.571Z,32.00
2017-05-29T17:45:09.580Z,31.80
2017-05-29T17:47:41.702Z,31.60
2017-05-29T17:50:12.655Z,31.40
2017-05-29T17:55:25.921Z,31.00
2017-05-29T17:58:01.268Z,30.90
2017-05-29T18:00:32.457Z,30.60
2017-05-29T18:03:03.827Z,30.60
2017-05-29T18:05:35.009Z,30.50
2017-05-29T18:08:06.248Z,30.20
2017-05-29T18:10:37.102Z,29.40
2017-05-29T18:13:08.091Z,29.10
2017-05-29T18:15:39.213Z,28.90
2017-05-29T18:18:10.266Z,28.60
2017-05-29T18:20:41.308Z,28.40
2017-05-29T18:23:12.343Z,28.20
2017-05-29T18:25:43.451Z,28.10
2017-05-29T18:28:14.010Z,28.00
2017-05-29T18:30:44.978Z,27.80
2017-05-29T18:33:16.037Z,27.70
2017-05-29T18:35:46.987Z,27.60
2017-05-29T18:38:20.319Z,27.60
2017-05-29T18:40:51.363Z,27.50
2017-05-29T18:43:22.628Z,27.40
2017-05-29T18:45:53.649Z,27.30
2017-05-29T18:48:24.783Z,27.20
2017-05-29T18:50:56.518Z,27.10
2017-05-29T18:53:27.615Z,27.20
2017-05-29T18:55:57.837Z,27.10
2017-05-29T18:58:28.214Z,27.00
2017-05-29T19:00:59.301Z,26.70
2017-05-29T19:03:30.316Z,26.70
2017-05-29T19:06:01.294Z,26.50
2017-05-29T19:08:32.412Z,26.40
2017-05-29T19:11:03.474Z,26.30
2017-05-29T19:13:34.715Z,26.20
2017-05-29T19:16:06.988Z,26.20
2017-05-29T19:18:37.889Z,26.30
2017-05-29T19:21:08.922Z,26.30
2017-05-29T19:23:39.942Z,26.40
2017-05-29T19:26:15.194Z,26.50
2017-05-29T19:28:46.195Z,26.50
2017-05-29T19:31:17.349Z,26.50
2017-05-29T19:33:48.592Z,26.50
2017-05-29T19:36:24.001Z,26.60
2017-05-29T19:38:58.353Z,26.60
2017-05-29T19:41:29.581Z,26.60
2017-05-29T19:44:01.787Z,26.50
2017-05-29T19:46:33.381Z,26.50
2017-05-29T19:49:06.855Z,26.50
2017-05-29T19:51:37.946Z,26.40
2017-05-29T19:54:10.900Z,26.30
2017-05-29T19:56:41.902Z,26.20
2017-05-29T19:59:12.897Z,26.10
2017-05-29T20:01:43.943Z,26.10
2017-05-29T20:04:15.020Z,26.10
2017-05-29T20:06:46.572Z,25.80
2017-05-29T20:09:18.418Z,25.60
2017-05-29T20:11:50.295Z,25.40
2017-05-29T20:14:21.777Z,25.20
2017-05-29T20:16:52.788Z,25.10
2017-05-29T20:19:24.799Z,25.00
2017-05-29T20:21:55.845Z,24.90
2017-05-29T20:24:26.993Z,24.80
2017-05-29T20:26:57.956Z,24.80
2017-05-29T20:29:29.088Z,24.70
2017-05-29T20:32:00.074Z,24.60
2017-05-29T20:34:31.192Z,24.60
2017-05-29T20:37:02.196Z,24.60
2017-05-29T20:39:33.511Z,24.50
2017-05-29T20:42:04.500Z,24.50
2017-05-29T20:44:35.974Z,24.40
2017-05-29T20:47:07.011Z,24.40
2017-05-29T20:49:38.586Z,24.40
2017-05-29T20:52:11.424Z,24.50
2017-05-29T20:54:42.682Z,24.40
2017-05-29T20:57:13.625Z,24.40
2017-05-29T20:59:44.633Z,24.40
2017-05-29T21:02:15.605Z,24.40
2017-05-29T21:04:46.589Z,24.40
2017-05-29T21:07:17.680Z,24.30
2017-05-29T21:09:49.971Z,24.20
2017-05-29T21:12:21.199Z,24.10
2017-05-29T21:14:52.555Z,24.10
2017-05-29T21:17:23.466Z,24.10
2017-05-29T21:19:54.528Z,24.20
2017-05-29T21:22:25.635Z,24.20
2017-05-29T21:24:56.733Z,24.30
2017-05-29T21:27:28.933Z,24.40
2017-05-29T21:29:59.990Z,24.40
2017-05-29T21:32:31.147Z,24.40
2017-05-29T21:35:02.298Z,24.40
2017-05-29T21:37:33.529Z,24.40
2017-05-29T21:40:05.343Z,24.30
2017-05-29T21:42:37.232Z,24.20
2017-05-29T21:45:09.105Z,24.20
2017-05-29T21:47:40.057Z,24.20
2017-05-29T21:50:10.991Z,24.10
2017-05-29T21:52:41.970Z,23.90
2017-05-29T21:55:12.944Z,23.80
2017-05-29T21:57:44.595Z,23.80
2017-05-29T22:00:15.575Z,23.80
2017-05-29T22:02:46.415Z,23.70
2017-05-29T22:05:17.400Z,23.60
2017-05-29T22:07:49.208Z,23.60
2017-05-29T22:10:21.699Z,23.60
2017-05-29T22:12:52.607Z,23.40
2017-05-29T22:15:25.346Z,23.30
2017-05-29T22:17:56.653Z,23.40
2017-05-29T22:20:28.678Z,23.30
2017-05-29T22:22:59.635Z,23.30
2017-05-29T22:25:30.555Z,23.30
2017-05-29T22:28:01.547Z,23.30
2017-05-29T22:30:33.123Z,23.30
2017-05-29T22:33:04.008Z,23.30
2017-05-29T22:35:34.238Z,23.30
2017-05-29T22:38:05.206Z,23.40
2017-05-29T22:40:37.332Z,23.40
2017-05-29T22:44:27.400Z,23.50
2017-05-29T22:46:58.451Z,23.50
2017-05-29T22:49:29.442Z,23.50
2017-05-29T22:52:00.522Z,23.60
2017-05-29T22:54:31.476Z,23.60
2017-05-29T22:57:02.522Z,23.60
2017-05-29T22:59:33.730Z,23.60
2017-05-29T23:02:04.651Z,23.60
2017-05-29T23:04:35.875Z,23.60
2017-05-29T23:07:06.956Z,23.50
2017-05-29T23:09:37.932Z,23.40
2017-05-29T23:12:09.141Z,23.40
2017-05-29T23:14:40.688Z,23.40
2017-05-29T23:17:11.981Z,23.40
2017-05-29T23:19:42.797Z,23.30
2017-05-29T23:22:13.893Z,23.20
2017-05-29T23:24:44.807Z,23.20
2017-05-29T23:27:15.852Z,23.20
2017-05-29T23:29:46.875Z,23.10
2017-05-29T23:32:17.991Z,23.10
2017-05-29T23:34:48.951Z,23.10
2017-05-29T23:37:20.276Z,23.10
2017-05-29T23:39:52.381Z,23.00
2017-05-29T23:42:23.700Z,23.00
2017-05-29T23:44:55.105Z,23.00
2017-05-29T23:47:25.969Z,23.00
2017-05-29T23:49:56.896Z,22.90
2017-05-29T23:52:27.901Z,22.90
2017-05-29T23:54:58.840Z,22.80
2017-05-29T23:57:29.953Z,22.90
